createdAt,value
2022-10-24T00:00:10.036Z,46.95
2022-10-24T00:01:14.530Z,47.83
2022-10-24T00:02:17.215Z,46.10
2022-10-24T00:03:20.969Z,44.20
2022-10-24T00:04:23.727Z,52.78
2022-10-24T00:05:27.840Z,41.95
2022-10-24T00:06:31.929Z,45.17
2022-10-24T00:07:35.637Z,47.85
2022-10-24T00:08:39.367Z,48.42
2022-10-24T00:09:43.138Z,46.10
2022-10-24T00:10:47.790Z,54.78
2022-10-24T00:11:51.571Z,49.30
2022-10-24T00:12:55.091Z,46.53
2022-10-24T00:13:59.800Z,49.20
2022-10-24T00:15:02.593Z,53.75
2022-10-24T00:16:06.924Z,53.22
2022-10-24T00:17:09.733Z,51.03
2022-10-24T00:18:13.618Z,53.47
2022-10-24T00:19:16.379Z,51.63
2022-10-24T00:20:20.232Z,57.90
2022-10-24T00:21:23.117Z,57.78
2022-10-24T00:22:28.489Z,49.00
2022-10-24T00:23:31.294Z,48.10
2022-10-24T00:24:35.028Z,44.78
2022-10-24T00:25:37.810Z,49.22
2022-10-24T00:26:41.637Z,46.88
2022-10-24T00:27:44.450Z,47.85
2022-10-24T00:28:48.201Z,46.42
2022-10-24T00:29:50.989Z,46.80
2022-10-24T00:30:54.929Z,48.25
2022-10-24T00:31:57.626Z,43.95
2022-10-24T00:33:01.345Z,47.25
2022-10-24T00:34:04.546Z,43.90
2022-10-24T00:35:09.052Z,47.17
2022-10-24T00:36:12.909Z,51.65
2022-10-24T00:37:16.692Z,47.53
2022-10-24T00:38:20.836Z,53.42
2022-10-24T00:39:24.527Z,51.38
2022-10-24T00:40:27.228Z,53.47
2022-10-24T00:41:33.697Z,44.25
2022-10-24T00:42:36.997Z,44.95
2022-10-24T00:43:40.777Z,50.72
2022-10-24T00:44:43.767Z,45.53
2022-10-24T00:45:50.859Z,48.80
2022-10-24T00:46:55.808Z,50.92
2022-10-24T00:47:59.599Z,45.67
2022-10-24T00:49:02.360Z,49.20
2022-10-24T00:50:13.680Z,47.55
2022-10-24T00:51:21.876Z,46.50
2022-10-24T00:52:28.647Z,46.35
2022-10-24T00:53:33.746Z,45.10
2022-10-24T00:54:39.204Z,46.78
2022-10-24T00:55:43.278Z,38.35
2022-10-24T00:56:51.258Z,42.38
2022-10-24T00:57:55.407Z,48.10
2022-10-24T00:59:00.209Z,48.60
2022-10-24T01:00:09.187Z,45.08
2022-10-24T01:01:13.811Z,43.97
2022-10-24T01:02:16.615Z,45.88
2022-10-24T01:03:20.507Z,43.13
2022-10-24T01:04:23.248Z,39.75
2022-10-24T01:05:31.448Z,41.85
2022-10-24T01:06:45.927Z,42.38
2022-10-24T01:07:56.857Z,43.45
2022-10-24T01:09:10.016Z,43.25
2022-10-24T01:10:24.184Z,45.00
2022-10-24T01:11:40.714Z,42.95
2022-10-24T01:12:50.997Z,43.83
2022-10-24T01:13:59.168Z,41.35
2022-10-24T01:15:09.924Z,43.35
2022-10-24T01:16:15.717Z,40.92
2022-10-24T01:17:25.699Z,45.03
2022-10-24T01:18:31.558Z,42.40
2022-10-24T01:20:09.367Z,48.70
2022-10-24T01:21:25.066Z,41.47
2022-10-24T01:22:33.521Z,41.53
2022-10-24T01:23:58.569Z,43.13
2022-10-24T01:25:14.880Z,42.95
2022-10-24T01:26:33.969Z,37.92
2022-10-24T01:27:58.066Z,41.13
2022-10-24T01:29:08.013Z,39.33
2022-10-24T01:30:14.753Z,41.38
2022-10-24T01:31:21.269Z,41.33
2022-10-24T01:32:36.199Z,38.45
2022-10-24T01:33:41.209Z,40.33
2022-10-24T01:34:47.221Z,37.17
2022-10-24T01:36:10.120Z,41.78
2022-10-24T01:37:17.751Z,39.20
2022-10-24T01:38:25.702Z,37.03
2022-10-24T01:39:31.804Z,35.60
2022-10-24T01:40:38.269Z,36.13
2022-10-24T01:41:42.393Z,36.42
2022-10-24T01:42:46.701Z,39.92
2022-10-24T01:45:02.261Z,31.75
2022-10-24T01:46:20.338Z,32.25
2022-10-24T01:47:25.329Z,34.80
2022-10-24T01:48:30.740Z,39.40
2022-10-24T01:49:36.060Z,41.35
2022-10-24T01:50:40.800Z,43.03
2022-10-24T01:51:43.701Z,42.53
2022-10-24T01:52:48.480Z,41.05
2022-10-24T01:53:53.037Z,41.42
2022-10-24T01:54:55.730Z,37.55
2022-10-24T01:55:59.961Z,38.45
2022-10-24T01:57:02.963Z,36.42
2022-10-24T01:58:08.003Z,35.40
2022-10-24T01:59:40.271Z,33.13
2022-10-24T02:00:44.942Z,30.73
2022-10-24T02:01:49.224Z,35.58
2022-10-24T02:02:55.540Z,37.30
2022-10-24T02:03:58.912Z,33.90
2022-10-24T02:05:05.851Z,31.98
2022-10-24T02:06:11.832Z,37.45
2022-10-24T02:07:14.801Z,39.67
2022-10-24T02:08:21.200Z,40.22
2022-10-24T02:09:24.860Z,37.53
2022-10-24T02:10:31.138Z,36.00
2022-10-24T02:11:34.963Z,39.45
2022-10-24T02:12:40.100Z,36.60
2022-10-24T02:13:46.587Z,46.25
2022-10-24T02:14:52.101Z,48.65
2022-10-24T02:15:57.439Z,47.75
2022-10-24T02:17:04.329Z,38.42
2022-10-24T02:18:07.318Z,42.05
2022-10-24T02:19:11.251Z,37.33
2022-10-24T02:20:14.401Z,40.95
2022-10-24T02:21:23.457Z,42.00
2022-10-24T02:22:29.550Z,36.42
2022-10-24T02:23:38.369Z,38.25
2022-10-24T02:24:43.370Z,35.88
2022-10-24T02:25:49.492Z,37.45
2022-10-24T02:26:55.022Z,38.90
2022-10-24T02:28:02.511Z,36.05
2022-10-24T02:29:07.983Z,35.05
2022-10-24T02:30:15.018Z,43.10
2022-10-24T02:31:42.380Z,42.97
2022-10-24T02:32:48.052Z,43.83
2022-10-24T02:33:53.340Z,44.00
2022-10-24T02:34:56.138Z,45.92
2022-10-24T02:36:00.362Z,37.42
2022-10-24T02:37:03.782Z,45.30
2022-10-24T02:38:11.953Z,40.17
2022-10-24T02:39:15.122Z,45.97
2022-10-24T02:40:20.960Z,49.50
2022-10-24T02:41:26.680Z,44.88
2022-10-24T02:42:31.727Z,43.25
2022-10-24T02:43:34.832Z,39.15
2022-10-24T02:44:38.803Z,37.65
2022-10-24T02:45:41.557Z,35.53
2022-10-24T02:46:47.360Z,39.75
2022-10-24T02:47:53.548Z,42.10
2022-10-24T02:48:59.980Z,36.85
2022-10-24T02:50:02.694Z,39.03
2022-10-24T02:51:07.289Z,43.60
2022-10-24T02:52:10.050Z,41.92
2022-10-24T02:53:15.491Z,42.40
2022-10-24T02:54:18.337Z,42.30
2022-10-24T02:55:22.155Z,41.67
2022-10-24T02:56:24.988Z,42.22
2022-10-24T02:57:28.809Z,35.53
2022-10-24T02:58:31.572Z,34.45
2022-10-24T02:59:35.438Z,33.33
2022-10-24T03:00:38.356Z,37.00
2022-10-24T03:01:42.136Z,32.30
2022-10-24T03:02:45.279Z,33.58
2022-10-24T03:03:50.867Z,32.95
2022-10-24T03:04:53.654Z,28.33
2022-10-24T03:05:57.331Z,29.77
2022-10-24T03:07:00.083Z,29.38
2022-10-24T03:08:03.856Z,29.25
2022-10-24T03:09:06.621Z,34.38
2022-10-24T03:10:10.878Z,33.97
2022-10-24T03:11:13.570Z,29.67
2022-10-24T03:12:17.940Z,32.40
2022-10-24T03:13:20.650Z,29.13
2022-10-24T03:14:24.509Z,32.55
2022-10-24T03:15:27.250Z,31.95
2022-10-24T03:16:30.949Z,29.48
2022-10-24T03:17:33.698Z,32.45
2022-10-24T03:18:37.465Z,32.20
2022-10-24T03:19:41.547Z,29.17
2022-10-24T03:20:45.332Z,31.13
2022-10-24T03:21:48.110Z,29.50
2022-10-24T03:22:52.321Z,28.75
2022-10-24T03:23:55.154Z,29.67
2022-10-24T03:25:02.023Z,29.67
2022-10-24T03:26:04.741Z,30.77
2022-10-24T03:27:09.031Z,27.73
2022-10-24T03:28:11.842Z,28.25
2022-10-24T03:29:15.537Z,30.42
2022-10-24T03:30:19.351Z,31.17
2022-10-24T03:31:22.061Z,28.67
2022-10-24T03:33:29.561Z,28.90
2022-10-24T03:34:33.390Z,26.75
2022-10-24T03:35:37.650Z,26.48
2022-10-24T03:36:41.518Z,25.25
2022-10-24T03:37:44.380Z,24.90
2022-10-24T03:38:48.070Z,25.75
2022-10-24T03:39:50.826Z,26.40
2022-10-24T03:40:54.760Z,28.13
2022-10-24T03:41:57.439Z,27.83
2022-10-24T03:43:01.348Z,26.48
2022-10-24T03:44:04.111Z,25.20
2022-10-24T03:45:09.162Z,26.08
2022-10-24T03:46:11.869Z,28.15
2022-10-24T03:47:15.787Z,29.75
2022-10-24T03:48:19.219Z,29.13
2022-10-24T03:49:23.172Z,28.73
2022-10-24T03:50:26.191Z,28.45
2022-10-24T03:51:31.363Z,27.92
2022-10-24T03:52:35.232Z,28.67
2022-10-24T03:53:38.169Z,28.65
2022-10-24T03:54:41.948Z,29.63
2022-10-24T03:55:44.693Z,28.92
2022-10-24T03:56:49.620Z,28.63
2022-10-24T03:57:52.667Z,28.70
2022-10-24T03:58:56.449Z,28.13
2022-10-24T03:59:59.412Z,27.70
2022-10-24T04:01:03.734Z,27.63
2022-10-24T04:02:06.672Z,26.65
2022-10-24T04:03:11.018Z,27.50
2022-10-24T04:04:13.700Z,26.65
2022-10-24T04:05:17.559Z,25.27
2022-10-24T04:06:20.278Z,27.17
2022-10-24T04:07:25.501Z,24.05
2022-10-24T04:08:28.167Z,24.13
2022-10-24T04:09:32.020Z,24.02
2022-10-24T04:10:34.767Z,24.27
2022-10-24T04:11:38.557Z,25.27
2022-10-24T04:12:41.249Z,24.02
2022-10-24T04:13:45.008Z,25.42
2022-10-24T04:14:47.672Z,24.90
2022-10-24T04:15:51.441Z,25.52
2022-10-24T04:16:54.169Z,23.45
2022-10-24T04:17:57.910Z,22.65
2022-10-24T04:19:00.729Z,26.13
2022-10-24T04:20:04.713Z,23.92
2022-10-24T04:21:08.411Z,23.25
2022-10-24T04:22:11.209Z,23.40
2022-10-24T04:23:16.426Z,22.88
2022-10-24T04:24:20.229Z,24.50
2022-10-24T04:25:23.112Z,23.75
2022-10-24T04:26:27.159Z,21.23
2022-10-24T04:27:29.801Z,22.33
2022-10-24T04:28:33.740Z,24.83
2022-10-24T04:29:36.573Z,22.98
2022-10-24T04:30:40.434Z,23.95
2022-10-24T04:31:43.201Z,22.92
2022-10-24T04:32:47.223Z,23.90
2022-10-24T04:33:50.276Z,24.00
2022-10-24T04:34:54.096Z,22.50
2022-10-24T04:35:56.761Z,24.05
2022-10-24T04:37:00.560Z,22.65
2022-10-24T04:38:03.372Z,22.10
2022-10-24T04:39:08.763Z,22.02
2022-10-24T04:40:12.251Z,23.30
2022-10-24T04:41:16.089Z,23.02
2022-10-24T04:42:18.922Z,23.85
2022-10-24T04:43:23.394Z,23.75
2022-10-24T04:44:26.130Z,23.08
2022-10-24T04:45:29.891Z,24.70
2022-10-24T04:46:32.840Z,23.35
2022-10-24T04:47:36.820Z,23.10
2022-10-24T04:48:39.564Z,23.58
2022-10-24T04:49:43.415Z,23.60
2022-10-24T04:50:47.423Z,22.70
2022-10-24T04:51:51.246Z,21.63
2022-10-24T04:52:54.089Z,21.17
2022-10-24T04:53:57.831Z,22.10
2022-10-24T04:55:02.064Z,21.73
2022-10-24T04:56:06.363Z,22.45
2022-10-24T04:57:08.978Z,22.13
2022-10-24T04:58:12.710Z,20.83
2022-10-24T04:59:15.408Z,21.42
2022-10-24T05:00:19.399Z,22.27
2022-10-24T05:01:22.253Z,23.20
2022-10-24T05:02:26.161Z,24.02
2022-10-24T05:03:28.880Z,22.98
2022-10-24T05:04:32.767Z,22.63
2022-10-24T05:05:35.501Z,20.55
2022-10-24T05:06:44.215Z,21.23
2022-10-24T05:07:47.925Z,22.67
2022-10-24T05:08:51.708Z,21.83
2022-10-24T05:09:54.491Z,21.73
2022-10-24T05:10:59.587Z,21.25
2022-10-24T05:12:03.450Z,23.05
2022-10-24T05:13:06.149Z,22.35
2022-10-24T05:14:09.876Z,23.55
2022-10-24T05:15:14.448Z,22.05
2022-10-24T05:16:18.230Z,21.85
2022-10-24T05:17:20.986Z,23.92
2022-10-24T05:18:24.779Z,24.88
2022-10-24T05:19:27.522Z,22.83
2022-10-24T05:20:31.371Z,24.45
2022-10-24T05:21:34.311Z,23.85
2022-10-24T05:22:38.070Z,24.08
2022-10-24T05:23:42.011Z,27.05
2022-10-24T05:24:44.781Z,24.52
2022-10-24T05:25:48.580Z,22.90
2022-10-24T05:26:52.715Z,22.17
2022-10-24T05:27:56.489Z,22.08
2022-10-24T05:28:59.281Z,24.40
2022-10-24T05:30:03.191Z,24.65
2022-10-24T05:31:05.918Z,24.77
2022-10-24T05:32:09.732Z,23.58
2022-10-24T05:33:12.729Z,24.42
2022-10-24T05:34:16.492Z,24.25
2022-10-24T05:35:19.257Z,25.45
2022-10-24T05:36:23.197Z,25.17
2022-10-24T05:37:25.931Z,23.52
2022-10-24T05:38:29.832Z,26.58
2022-10-24T05:39:32.590Z,26.83
2022-10-24T05:40:36.392Z,27.88
2022-10-24T05:41:41.135Z,25.75
2022-10-24T05:42:48.976Z,25.08
2022-10-24T05:43:51.836Z,24.90
2022-10-24T05:44:55.580Z,23.75
2022-10-24T05:45:59.470Z,23.48
2022-10-24T05:47:02.081Z,25.77
2022-10-24T05:48:06.541Z,27.55
2022-10-24T05:49:09.240Z,27.77
2022-10-24T05:50:13.083Z,26.88
2022-10-24T05:51:15.821Z,27.00
2022-10-24T05:52:19.612Z,27.75
2022-10-24T05:53:22.249Z,27.15
2022-10-24T05:54:30.298Z,28.02
2022-10-24T05:55:41.671Z,28.33
2022-10-24T05:56:44.361Z,26.58
2022-10-24T05:57:49.618Z,27.83
2022-10-24T05:58:53.478Z,28.42
2022-10-24T05:59:56.212Z,28.70
2022-10-24T06:01:00.108Z,27.90
2022-10-24T06:02:03.315Z,30.05
2022-10-24T06:03:07.079Z,28.20
2022-10-24T06:04:12.891Z,28.02
2022-10-24T06:05:17.701Z,27.85
2022-10-24T06:06:20.427Z,28.35
2022-10-24T06:07:24.335Z,27.67
2022-10-24T06:08:27.221Z,27.35
2022-10-24T06:09:31.092Z,27.50
2022-10-24T06:10:34.118Z,28.05
2022-10-24T06:11:37.969Z,29.88
2022-10-24T06:12:42.196Z,28.80
2022-10-24T06:13:47.430Z,31.30
2022-10-24T06:14:50.279Z,34.20
2022-10-24T06:15:54.231Z,28.60
2022-10-24T06:16:56.892Z,30.48
2022-10-24T06:18:00.643Z,33.20
2022-10-24T06:19:03.555Z,33.20
2022-10-24T06:20:08.184Z,32.40
2022-10-24T06:21:13.632Z,35.30
2022-10-24T06:22:17.373Z,30.83
2022-10-24T06:23:20.303Z,32.03
2022-10-24T06:24:24.213Z,31.73
2022-10-24T06:25:28.151Z,33.30
2022-10-24T06:26:30.980Z,30.55
2022-10-24T06:27:34.800Z,31.77
2022-10-24T06:28:37.642Z,36.38
2022-10-24T06:29:43.022Z,34.10
2022-10-24T06:30:48.406Z,39.47
2022-10-24T06:31:52.231Z,37.88
2022-10-24T06:32:55.186Z,36.40
2022-10-24T06:33:58.962Z,36.40
2022-10-24T06:35:02.482Z,37.67
2022-10-24T06:36:09.558Z,36.90
2022-10-24T06:37:12.310Z,37.13
2022-10-24T06:38:16.081Z,35.08
2022-10-24T06:39:18.785Z,39.15
2022-10-24T06:40:22.672Z,42.60
2022-10-24T06:41:25.382Z,47.97
2022-10-24T06:42:29.050Z,48.30
2022-10-24T06:43:32.521Z,48.45
2022-10-24T06:44:36.832Z,45.55
2022-10-24T06:45:40.909Z,42.55
2022-10-24T06:46:45.461Z,38.80
2022-10-24T06:47:51.827Z,37.28
2022-10-24T06:48:57.912Z,33.05
2022-10-24T06:50:01.675Z,28.40
2022-10-24T06:51:04.776Z,26.42
2022-10-24T06:52:08.530Z,26.77
2022-10-24T06:53:11.347Z,24.50
2022-10-24T06:54:15.182Z,21.73
2022-10-24T06:55:17.950Z,22.70
2022-10-24T06:56:21.756Z,20.27
2022-10-24T06:57:24.580Z,21.08
2022-10-24T06:58:29.729Z,18.40
2022-10-24T06:59:32.503Z,17.55
2022-10-24T07:00:36.331Z,16.30
2022-10-24T07:01:41.642Z,16.83
2022-10-24T07:02:44.677Z,16.08
2022-10-24T07:03:49.176Z,14.93
2022-10-24T07:04:52.956Z,13.80
2022-10-24T07:05:56.060Z,12.82
2022-10-24T07:06:59.834Z,12.40
2022-10-24T07:08:02.651Z,11.65
2022-10-24T07:09:10.297Z,11.80
2022-10-24T07:10:16.778Z,10.68
2022-10-24T07:11:19.856Z,11.70
2022-10-24T07:12:23.982Z,10.75
2022-10-24T07:13:26.649Z,11.50
2022-10-24T07:14:30.561Z,11.43
2022-10-24T07:15:33.231Z,11.75
2022-10-24T07:16:37.220Z,10.45
2022-10-24T07:17:43.519Z,9.70
2022-10-24T07:18:46.499Z,10.13
2022-10-24T07:19:54.252Z,9.25
2022-10-24T07:21:03.024Z,10.68
2022-10-24T07:22:07.221Z,10.38
2022-10-24T07:23:09.927Z,9.55
2022-10-24T07:24:13.805Z,9.55
2022-10-24T07:25:16.998Z,9.10
2022-10-24T07:26:22.547Z,9.43
2022-10-24T07:27:26.359Z,8.70
2022-10-24T07:28:28.990Z,8.32
2022-10-24T07:29:32.751Z,8.45
2022-10-24T07:30:35.460Z,8.23
2022-10-24T07:31:39.159Z,8.07
2022-10-24T07:32:43.652Z,7.85
2022-10-24T07:33:47.549Z,7.68
2022-10-24T07:34:51.236Z,7.78
2022-10-24T07:35:54.047Z,7.47
2022-10-24T07:36:57.717Z,7.55
2022-10-24T07:38:00.342Z,8.05
2022-10-24T07:39:04.149Z,7.78
2022-10-24T07:40:08.991Z,7.07
2022-10-24T07:41:14.934Z,6.93
2022-10-24T07:42:19.019Z,6.20
2022-10-24T07:43:22.869Z,6.55
2022-10-24T07:44:26.646Z,6.45
2022-10-24T07:45:30.121Z,6.28
2022-10-24T07:46:33.820Z,6.47
2022-10-24T07:47:36.478Z,6.07
2022-10-24T07:48:42.699Z,6.72
2022-10-24T07:49:46.412Z,5.97
2022-10-24T07:50:49.639Z,6.30
2022-10-24T07:51:53.328Z,5.80
2022-10-24T07:52:57.449Z,6.53
2022-10-24T07:54:00.442Z,5.93
2022-10-24T07:55:05.491Z,5.60
2022-10-24T07:56:10.779Z,5.35
2022-10-24T07:57:13.468Z,5.57
2022-10-24T07:58:17.181Z,8.48
2022-10-24T07:59:40.786Z,6.00
2022-10-24T08:00:45.534Z,5.55
2022-10-24T08:01:48.560Z,5.47
2022-10-24T08:02:52.554Z,5.95
2022-10-24T08:03:58.282Z,5.50
2022-10-24T08:05:01.954Z,5.20
2022-10-24T08:06:06.202Z,5.28
2022-10-24T08:07:13.738Z,5.72
2022-10-24T08:08:35.090Z,5.55
2022-10-24T08:09:40.069Z,5.28
2022-10-24T08:10:42.702Z,5.78
2022-10-24T08:11:46.440Z,5.65
2022-10-24T08:12:49.127Z,4.75
2022-10-24T08:13:53.861Z,4.40
2022-10-24T08:14:58.461Z,6.50
2022-10-24T08:16:02.917Z,4.55
2022-10-24T08:17:06.059Z,5.38
2022-10-24T08:18:09.851Z,5.55
2022-10-24T08:19:15.393Z,4.63
2022-10-24T08:20:19.229Z,5.90
2022-10-24T08:21:24.212Z,4.63
2022-10-24T08:22:27.933Z,4.82
2022-10-24T08:23:30.642Z,4.80
2022-10-24T08:24:34.320Z,4.75
2022-10-24T08:25:40.356Z,5.00
2022-10-24T08:26:44.108Z,4.65
2022-10-24T08:27:47.826Z,5.00
2022-10-24T08:28:50.909Z,4.97
2022-10-24T08:29:54.761Z,5.15
2022-10-24T08:30:58.819Z,4.68
2022-10-24T08:32:02.520Z,4.72
2022-10-24T08:33:05.220Z,4.32
2022-10-24T08:34:08.918Z,4.72
2022-10-24T08:35:16.669Z,4.53
2022-10-24T08:36:22.556Z,4.47
2022-10-24T08:37:26.544Z,4.07
2022-10-24T08:38:30.410Z,4.28
2022-10-24T08:39:41.920Z,4.53
2022-10-24T08:40:49.249Z,5.15
2022-10-24T08:41:59.281Z,4.80
2022-10-24T08:43:04.601Z,4.38
2022-10-24T08:44:16.286Z,4.57
2022-10-24T08:45:25.121Z,4.13
2022-10-24T08:46:38.037Z,5.78
2022-10-24T08:47:44.949Z,5.05
2022-10-24T08:48:54.342Z,4.57
2022-10-24T08:50:06.069Z,5.35
2022-10-24T08:51:19.521Z,4.68
2022-10-24T08:52:29.691Z,4.80
2022-10-24T08:53:34.477Z,4.82
2022-10-24T08:54:41.782Z,5.22
2022-10-24T08:55:50.288Z,5.53
2022-10-24T08:56:58.131Z,4.30
2022-10-24T08:58:02.872Z,4.28
2022-10-24T08:59:07.282Z,4.03
2022-10-24T09:00:18.640Z,3.90
2022-10-24T09:01:31.256Z,3.70
2022-10-24T09:02:39.926Z,3.97
2022-10-24T09:04:01.330Z,4.60
2022-10-24T09:05:20.001Z,9.13
2022-10-24T09:06:27.204Z,11.93
2022-10-24T09:07:31.260Z,6.35
2022-10-24T09:08:39.101Z,8.27
2022-10-24T09:09:46.982Z,4.50
2022-10-24T09:10:55.983Z,3.78
2022-10-24T09:12:01.994Z,3.85
2022-10-24T09:13:12.304Z,3.60
2022-10-24T09:14:18.041Z,4.15
2022-10-24T09:15:26.720Z,3.50
2022-10-24T09:16:31.039Z,3.75
2022-10-24T09:17:37.400Z,3.90
2022-10-24T09:18:42.673Z,3.60
2022-10-24T09:19:50.767Z,3.72
2022-10-24T09:20:55.781Z,3.60
2022-10-24T09:22:01.854Z,3.47
2022-10-24T09:23:05.932Z,4.20
2022-10-24T09:24:17.633Z,3.40
2022-10-24T09:25:24.253Z,3.72
2022-10-24T09:26:29.454Z,3.80
2022-10-24T09:27:35.161Z,3.70
2022-10-24T09:28:40.239Z,3.78
2022-10-24T09:29:43.117Z,4.00
2022-10-24T09:30:47.356Z,3.78
2022-10-24T09:31:50.113Z,4.57
2022-10-24T09:32:54.401Z,4.20
2022-10-24T09:34:00.638Z,3.83
2022-10-24T09:35:07.763Z,3.93
2022-10-24T09:36:12.770Z,3.47
2022-10-24T09:37:43.989Z,3.40
2022-10-24T09:38:50.208Z,3.90
2022-10-24T09:40:07.573Z,3.55
2022-10-24T09:41:18.541Z,4.47
2022-10-24T09:42:23.999Z,3.30
2022-10-24T09:43:33.509Z,3.95
2022-10-24T09:44:41.230Z,2.83
2022-10-24T09:45:47.280Z,3.50
2022-10-24T09:46:51.149Z,6.63
2022-10-24T09:47:57.004Z,13.05
2022-10-24T09:49:02.780Z,5.72
2022-10-24T09:50:06.779Z,3.58
2022-10-24T09:51:10.551Z,3.65
2022-10-24T09:52:20.707Z,3.70
2022-10-24T09:53:30.641Z,3.65
2022-10-24T09:54:35.494Z,3.45
2022-10-24T09:55:45.762Z,3.22
2022-10-24T09:56:54.292Z,3.65
2022-10-24T09:58:04.223Z,4.35
2022-10-24T09:59:28.061Z,4.30
2022-10-24T10:00:33.749Z,3.92
2022-10-24T10:01:38.387Z,3.35
2022-10-24T10:02:58.469Z,3.45
2022-10-24T10:04:07.570Z,3.33
2022-10-24T10:05:22.829Z,3.30
2022-10-24T10:06:25.548Z,3.53
2022-10-24T10:07:30.390Z,3.42
2022-10-24T10:08:37.172Z,3.45
2022-10-24T10:09:51.605Z,3.33
2022-10-24T10:11:04.960Z,3.78
2022-10-24T10:12:13.911Z,4.88
2022-10-24T10:13:24.500Z,4.50
2022-10-24T10:14:30.381Z,4.10
2022-10-24T10:15:36.389Z,4.50
2022-10-24T10:16:40.822Z,3.78
2022-10-24T10:17:51.080Z,6.47
2022-10-24T10:19:03.496Z,3.83
2022-10-24T10:20:06.813Z,5.88
2022-10-24T10:21:16.012Z,4.43
2022-10-24T10:22:25.890Z,10.40
2022-10-24T10:23:32.651Z,4.37
2022-10-24T10:24:42.421Z,3.90
2022-10-24T10:25:45.125Z,3.88
2022-10-24T10:26:48.858Z,3.90
2022-10-24T10:27:52.797Z,3.80
2022-10-24T10:29:02.448Z,3.75
2022-10-24T10:30:17.182Z,3.50
2022-10-24T10:31:22.836Z,3.28
2022-10-24T10:32:31.153Z,3.88
2022-10-24T10:34:48.299Z,4.20
2022-10-24T10:35:54.251Z,4.15
2022-10-24T10:37:18.962Z,3.65
2022-10-24T10:38:45.463Z,3.70
2022-10-24T10:40:15.982Z,3.92
2022-10-24T10:41:34.312Z,3.78
2022-10-24T10:42:43.094Z,11.15
2022-10-24T10:43:54.935Z,4.05
2022-10-24T10:45:06.437Z,4.30
2022-10-24T10:46:17.928Z,3.90
2022-10-24T10:47:35.104Z,4.03
2022-10-24T10:48:49.871Z,4.65
2022-10-24T10:49:57.844Z,4.43
2022-10-24T10:51:08.159Z,5.47
2022-10-24T10:52:14.848Z,11.70
2022-10-24T10:53:34.951Z,3.50
2022-10-24T10:54:59.791Z,4.05
2022-10-24T10:56:10.379Z,3.60
2022-10-24T10:57:14.340Z,3.78
2022-10-24T10:58:27.327Z,3.55
2022-10-24T10:59:41.209Z,3.30
2022-10-24T11:00:48.718Z,4.25
2022-10-24T11:01:58.863Z,3.55
2022-10-24T11:03:17.172Z,3.58
2022-10-24T11:04:24.103Z,3.25
2022-10-24T11:05:40.536Z,3.42
2022-10-24T11:06:50.542Z,3.80
2022-10-24T11:08:01.595Z,3.20
2022-10-24T11:09:19.667Z,3.30
2022-10-24T11:10:27.801Z,3.30
2022-10-24T11:11:32.290Z,3.73
2022-10-24T11:12:38.461Z,3.67
2022-10-24T11:13:43.738Z,4.23
2022-10-24T11:14:50.151Z,3.60
2022-10-24T11:15:56.362Z,3.87
2022-10-24T11:17:05.169Z,3.33
2022-10-24T11:18:13.421Z,3.30
2022-10-24T11:19:23.867Z,3.40
2022-10-24T11:20:31.253Z,3.20
2022-10-24T11:21:36.278Z,3.27
2022-10-24T11:22:44.204Z,3.70
2022-10-24T11:23:50.773Z,3.70
2022-10-24T11:24:59.089Z,3.90
2022-10-24T11:26:07.685Z,3.40
2022-10-24T11:27:15.588Z,3.53
2022-10-24T11:28:24.284Z,3.87
2022-10-24T11:29:33.037Z,2.90
2022-10-24T11:30:47.710Z,3.57
2022-10-24T11:31:54.915Z,3.40
2022-10-24T11:33:00.120Z,3.23
2022-10-24T11:34:05.991Z,3.00
2022-10-24T11:35:20.114Z,3.50
2022-10-24T11:36:27.610Z,5.33
2022-10-24T11:37:33.919Z,3.53
2022-10-24T11:38:39.631Z,3.07
2022-10-24T11:39:46.497Z,3.40
2022-10-24T11:40:54.800Z,4.63
2022-10-24T11:42:06.572Z,3.60
2022-10-24T11:43:14.650Z,4.40
2022-10-24T11:44:28.760Z,3.40
2022-10-24T11:45:40.558Z,3.67
2022-10-24T11:46:45.292Z,3.43
2022-10-24T11:47:56.031Z,4.03
2022-10-24T11:49:03.859Z,3.23
2022-10-24T11:50:13.062Z,3.83
2022-10-24T11:51:21.565Z,3.33
2022-10-24T11:52:27.369Z,3.60
2022-10-24T11:53:54.048Z,4.83
2022-10-24T11:55:00.346Z,3.43
2022-10-24T11:56:07.120Z,3.23
2022-10-24T11:57:15.003Z,5.00
2022-10-24T11:58:21.975Z,3.60
2022-10-24T11:59:25.772Z,3.70
2022-10-24T12:00:31.542Z,4.20
2022-10-24T12:02:20.170Z,3.50
2022-10-24T12:03:53.435Z,3.93
2022-10-24T12:05:25.816Z,3.70
2022-10-24T12:06:43.270Z,3.43
2022-10-24T12:08:23.328Z,3.77
2022-10-24T12:09:56.751Z,3.80
2022-10-24T12:11:07.783Z,3.70
2022-10-24T12:12:23.543Z,3.80
2022-10-24T12:13:49.647Z,3.50
2022-10-24T12:15:02.509Z,3.77
2022-10-24T12:16:14.141Z,3.67
2022-10-24T12:17:37.476Z,3.27
2022-10-24T12:18:43.252Z,3.70
2022-10-24T12:19:46.490Z,3.90
2022-10-24T12:20:52.797Z,4.27
2022-10-24T12:21:58.201Z,3.67
2022-10-24T12:23:01.617Z,3.20
2022-10-24T12:24:06.328Z,3.03
2022-10-24T12:25:19.789Z,4.60
2022-10-24T12:26:28.157Z,3.67
2022-10-24T12:27:37.450Z,3.55
2022-10-24T12:28:41.643Z,3.10
2022-10-24T12:29:44.491Z,3.67
2022-10-24T12:31:10.500Z,3.60
2022-10-24T12:32:38.252Z,3.57
2022-10-24T12:33:42.482Z,3.20
2022-10-24T12:34:49.147Z,3.70
2022-10-24T12:35:56.680Z,3.70
2022-10-24T12:37:05.460Z,4.47
2022-10-24T12:38:17.991Z,3.60
2022-10-24T12:39:30.893Z,3.97
2022-10-24T12:40:56.667Z,3.83
2022-10-24T12:42:00.591Z,5.30
2022-10-24T12:43:16.246Z,4.03
2022-10-24T12:44:37.690Z,3.10
2022-10-24T12:45:41.618Z,4.47
2022-10-24T12:46:54.870Z,5.30
2022-10-24T12:48:36.112Z,3.97
2022-10-24T12:49:38.823Z,5.93
2022-10-24T12:51:30.064Z,3.43
2022-10-24T12:52:51.791Z,4.83
2022-10-24T12:54:04.615Z,3.13
2022-10-24T12:55:30.958Z,3.43
2022-10-24T12:56:35.641Z,3.00
2022-10-24T12:57:38.818Z,3.30
2022-10-24T12:58:45.020Z,4.40
2022-10-24T12:59:49.348Z,5.37
2022-10-24T13:00:56.680Z,3.30
2022-10-24T13:02:41.031Z,3.40
2022-10-24T13:03:59.711Z,3.13
2022-10-24T13:05:13.259Z,3.27
2022-10-24T13:06:22.838Z,3.50
2022-10-24T13:08:02.060Z,3.10
2022-10-24T13:09:17.255Z,3.40
2022-10-24T13:10:33.216Z,3.97
2022-10-24T13:11:54.256Z,3.40
2022-10-24T13:13:14.053Z,3.87
2022-10-24T13:14:32.281Z,3.30
2022-10-24T13:15:43.259Z,3.50
2022-10-24T13:16:59.092Z,3.60
2022-10-24T13:18:21.628Z,3.43
2022-10-24T13:19:25.474Z,3.33
2022-10-24T13:20:30.640Z,4.37
2022-10-24T13:22:46.586Z,4.27
2022-10-24T13:23:50.022Z,3.40
2022-10-24T13:24:53.911Z,3.23
2022-10-24T13:25:58.051Z,3.83
2022-10-24T13:27:32.182Z,3.53
2022-10-24T13:28:40.861Z,3.23
2022-10-24T13:30:24.476Z,3.03
2022-10-24T13:31:47.940Z,4.27
2022-10-24T13:32:51.865Z,3.87
2022-10-24T13:34:20.533Z,4.47
2022-10-24T13:35:26.420Z,5.27
2022-10-24T13:36:32.097Z,3.80
2022-10-24T13:37:39.561Z,3.67
2022-10-24T13:38:46.763Z,4.30
2022-10-24T13:39:52.869Z,3.80
2022-10-24T13:40:56.029Z,4.30
2022-10-24T13:42:02.087Z,4.50
2022-10-24T13:43:07.997Z,4.00
2022-10-24T13:44:23.175Z,4.40
2022-10-24T13:45:31.071Z,5.20
2022-10-24T13:47:52.282Z,3.78
2022-10-24T13:48:55.590Z,4.27
2022-10-24T13:50:00.860Z,3.87
2022-10-24T13:51:07.091Z,4.57
2022-10-24T13:52:17.440Z,4.53
2022-10-24T13:53:30.326Z,4.22
2022-10-24T13:54:36.562Z,4.60
2022-10-24T13:55:44.449Z,4.85
2022-10-24T13:56:47.755Z,4.57
2022-10-24T13:57:54.054Z,3.90
2022-10-24T13:58:57.802Z,4.18
2022-10-24T14:00:02.070Z,4.63
2022-10-24T14:01:19.477Z,3.70
2022-10-24T14:02:26.084Z,3.92
2022-10-24T14:03:33.318Z,4.35
2022-10-24T14:04:36.128Z,4.05
2022-10-24T14:05:42.230Z,3.60
2022-10-24T14:06:44.943Z,4.30
2022-10-24T14:07:49.321Z,3.95
2022-10-24T14:09:05.544Z,3.60
2022-10-24T14:10:14.144Z,4.28
2022-10-24T14:11:22.696Z,4.20
2022-10-24T14:12:29.380Z,5.22
2022-10-24T14:13:35.694Z,4.13
2022-10-24T14:14:41.361Z,4.00
2022-10-24T14:15:48.940Z,4.65
2022-10-24T14:17:05.862Z,4.30
2022-10-24T14:18:14.920Z,4.30
2022-10-24T14:19:29.597Z,4.40
2022-10-24T14:20:36.642Z,4.30
2022-10-24T14:21:41.630Z,5.35
2022-10-24T14:22:45.629Z,5.05
2022-10-24T14:23:55.999Z,4.95
2022-10-24T14:24:59.900Z,5.53
2022-10-24T14:26:07.149Z,5.07
2022-10-24T14:27:12.259Z,4.88
2022-10-24T14:28:17.401Z,4.43
2022-10-24T14:29:22.954Z,5.35
2022-10-24T14:30:34.281Z,4.43
2022-10-24T14:31:37.771Z,4.80
2022-10-24T14:32:43.190Z,4.97
2022-10-24T14:33:50.586Z,4.95
2022-10-24T14:34:54.700Z,4.82
2022-10-24T14:36:00.087Z,5.00
2022-10-24T14:37:06.953Z,4.93
2022-10-24T14:38:15.091Z,4.90
2022-10-24T14:39:23.884Z,5.18
2022-10-24T14:40:27.787Z,4.68
2022-10-24T14:41:33.100Z,4.90